createdAt,value
2022-08-17T00:01:27.607Z,21.00
2022-08-17T00:04:01.078Z,20.10
2022-08-17T00:06:36.323Z,20.00
2022-08-17T00:09:10.534Z,19.10
2022-08-17T00:12:34.601Z,20.10
2022-08-17T00:14:49.166Z,21.40
2022-08-17T00:17:23.984Z,22.80
2022-08-17T00:19:57.920Z,18.90
2022-08-17T00:22:36.132Z,21.40
2022-08-17T00:25:17.324Z,19.70
2022-08-17T00:27:51.304Z,18.80
2022-08-17T00:30:25.487Z,19.70
2022-08-17T00:33:16.082Z,19.30
2022-08-17T00:35:54.110Z,18.60
2022-08-17T00:38:29.256Z,17.60
2022-08-17T00:41:08.178Z,25.00
2022-08-17T00:43:45.951Z,21.00
2022-08-17T00:46:26.945Z,26.60
2022-08-17T00:49:05.335Z,21.00
2022-08-17T00:51:55.848Z,18.00
2022-08-17T00:54:41.705Z,21.00
2022-08-17T00:57:28.861Z,20.30
2022-08-17T01:00:26.985Z,22.70
2022-08-17T01:03:06.878Z,24.00
2022-08-17T01:05:42.648Z,21.80
2022-08-17T01:08:20.140Z,22.90
2022-08-17T01:11:01.584Z,21.80
2022-08-17T01:13:46.558Z,29.40
2022-08-17T01:19:04.629Z,25.90
2022-08-17T01:21:46.098Z,25.00
2022-08-17T01:24:20.226Z,20.80
2022-08-17T01:26:53.914Z,24.40
2022-08-17T01:29:33.879Z,24.70
2022-08-17T01:32:09.850Z,24.80
2022-08-17T01:34:50.498Z,26.80
2022-08-17T01:37:43.045Z,25.80
2022-08-17T01:40:17.650Z,22.10
2022-08-17T01:43:12.795Z,21.50
2022-08-17T01:45:50.122Z,20.30
2022-08-17T01:48:43.614Z,25.10
2022-08-17T01:51:17.853Z,21.80
2022-08-17T01:53:58.802Z,24.40
2022-08-17T01:56:34.918Z,27.10
2022-08-17T01:59:08.690Z,20.90
2022-08-17T02:01:42.524Z,28.70
2022-08-17T02:04:16.395Z,28.80
2022-08-17T02:06:54.241Z,28.70
2022-08-17T02:09:31.172Z,27.70
2022-08-17T02:12:37.163Z,29.00
2022-08-17T02:15:00.701Z,26.10
2022-08-17T02:17:34.382Z,34.20
2022-08-17T02:20:09.534Z,36.20
2022-08-17T02:22:46.513Z,30.10
2022-08-17T02:25:22.334Z,24.80
2022-08-17T02:27:56.995Z,36.40
2022-08-17T02:30:59.579Z,50.00
2022-08-17T02:33:25.294Z,31.20
2022-08-17T02:36:19.069Z,42.10
2022-08-17T02:38:52.166Z,39.70
2022-08-17T02:41:25.222Z,40.30
2022-08-17T02:43:59.161Z,36.90
2022-08-17T02:46:32.967Z,28.40
2022-08-17T02:49:06.470Z,29.70
2022-08-17T02:51:39.368Z,39.90
2022-08-17T02:54:39.672Z,43.70
2022-08-17T02:57:07.065Z,35.80
2022-08-17T02:59:45.448Z,41.60
2022-08-17T03:02:23.356Z,37.80
2022-08-17T03:04:56.927Z,37.80
2022-08-17T03:07:32.562Z,39.90
2022-08-17T03:10:09.249Z,43.00
2022-08-17T03:12:44.292Z,32.80
2022-08-17T03:15:23.216Z,38.90
2022-08-17T03:17:58.033Z,28.90
2022-08-17T03:20:33.586Z,31.40
2022-08-17T03:23:07.699Z,34.70
2022-08-17T03:25:47.040Z,45.40
2022-08-17T03:28:20.378Z,43.60
2022-08-17T03:30:53.688Z,40.20
2022-08-17T03:33:26.998Z,35.70
2022-08-17T03:36:00.169Z,37.50
2022-08-17T03:38:39.304Z,32.20
2022-08-17T03:41:14.357Z,25.00
2022-08-17T03:43:47.473Z,26.50
2022-08-17T03:46:39.708Z,31.70
2022-08-17T03:49:32.027Z,23.40
2022-08-17T03:55:15.061Z,19.30
2022-08-17T03:57:49.330Z,25.10
2022-08-17T04:00:22.886Z,21.70
2022-08-17T04:02:56.513Z,25.40
2022-08-17T04:05:30.743Z,30.10
2022-08-17T04:08:08.314Z,26.90
2022-08-17T04:10:45.286Z,28.10
2022-08-17T04:13:25.009Z,28.80
2022-08-17T04:16:00.374Z,26.30
2022-08-17T04:18:33.666Z,21.50
2022-08-17T04:21:07.160Z,20.90
2022-08-17T04:23:39.929Z,21.00
2022-08-17T04:26:52.877Z,20.60
2022-08-17T04:29:09.875Z,21.90
2022-08-17T04:31:43.251Z,20.40
2022-08-17T04:34:16.254Z,21.10
2022-08-17T04:36:53.312Z,21.60
2022-08-17T04:39:26.652Z,24.60
2022-08-17T04:42:09.763Z,24.30
2022-08-17T04:44:42.845Z,24.20
2022-08-17T04:47:16.135Z,25.60
2022-08-17T04:49:48.898Z,25.70
2022-08-17T04:52:29.785Z,22.70
2022-08-17T04:55:18.628Z,22.60
2022-08-17T04:57:51.995Z,22.00
2022-08-17T05:00:26.602Z,21.50
2022-08-17T05:03:00.573Z,21.90
2022-08-17T05:05:36.956Z,23.10
2022-08-17T05:08:10.343Z,18.60
2022-08-17T05:10:45.579Z,22.20
2022-08-17T05:13:21.349Z,22.10
2022-08-17T05:15:59.493Z,20.60
2022-08-17T05:18:33.053Z,20.30
2022-08-17T05:21:07.068Z,19.30
2022-08-17T05:23:42.730Z,19.50
2022-08-17T05:26:26.190Z,19.50
2022-08-17T05:29:03.584Z,18.40
2022-08-17T05:31:37.315Z,20.20
2022-08-17T05:34:11.971Z,18.30
2022-08-17T05:36:45.651Z,21.10
2022-08-17T05:39:18.704Z,19.20
2022-08-17T05:41:52.195Z,20.50
2022-08-17T05:44:25.211Z,22.30
2022-08-17T05:47:01.584Z,20.30
2022-08-17T05:49:34.961Z,19.20
2022-08-17T05:52:55.602Z,20.40
2022-08-17T05:55:55.800Z,19.40
2022-08-17T05:58:58.922Z,19.60
2022-08-17T06:01:37.340Z,17.50
2022-08-17T06:04:35.777Z,19.30
2022-08-17T06:07:16.506Z,20.60
2022-08-17T06:10:12.771Z,17.40
2022-08-17T06:13:11.298Z,19.00
2022-08-17T06:16:28.235Z,19.60
2022-08-17T06:19:19.193Z,16.50
2022-08-17T06:21:54.619Z,15.70
2022-08-17T06:24:34.670Z,14.20
2022-08-17T06:27:42.306Z,15.10
2022-08-17T06:30:21.823Z,14.20
2022-08-17T06:33:00.143Z,14.40
2022-08-17T06:35:40.033Z,15.70
2022-08-17T06:38:38.351Z,17.80
2022-08-17T06:41:39.128Z,14.40
2022-08-17T06:44:50.194Z,12.20
2022-08-17T06:47:48.992Z,13.70
2022-08-17T06:50:40.712Z,14.40
2022-08-17T06:53:40.854Z,12.40
2022-08-17T06:56:16.284Z,12.10
2022-08-17T06:58:50.378Z,12.20
2022-08-17T07:01:31.725Z,13.40
2022-08-17T07:04:19.723Z,12.30
2022-08-17T07:07:01.550Z,11.90
2022-08-17T07:12:18.846Z,13.50
2022-08-17T07:15:15.346Z,12.40
2022-08-17T07:17:48.705Z,12.40
2022-08-17T07:20:23.777Z,10.60
2022-08-17T07:23:16.116Z,10.30
2022-08-17T07:25:49.563Z,11.40
2022-08-17T07:28:30.459Z,13.70
2022-08-17T07:31:05.834Z,15.40
2022-08-17T07:33:39.830Z,12.80
2022-08-17T07:36:35.809Z,10.90
2022-08-17T07:39:12.320Z,14.90
2022-08-17T07:41:59.383Z,13.20
2022-08-17T07:44:32.650Z,10.20
2022-08-17T07:47:25.638Z,13.30
2022-08-17T07:49:58.668Z,10.80
2022-08-17T07:52:51.800Z,14.20
2022-08-17T07:55:40.906Z,12.40
2022-08-17T07:58:26.939Z,10.30
2022-08-17T08:01:18.827Z,11.90
2022-08-17T08:03:53.068Z,9.80
2022-08-17T08:06:27.695Z,10.70
2022-08-17T08:09:01.470Z,9.80
2022-08-17T08:11:44.243Z,11.30
2022-08-17T08:14:40.596Z,11.00
2022-08-17T08:17:14.110Z,14.40
2022-08-17T08:19:47.438Z,11.00
2022-08-17T08:22:31.800Z,11.60
2022-08-17T08:25:15.265Z,12.50
2022-08-17T08:28:12.771Z,12.00
2022-08-17T08:30:53.279Z,9.80
2022-08-17T08:33:57.207Z,10.60
2022-08-17T08:37:02.076Z,10.70
2022-08-17T08:39:54.217Z,10.80
2022-08-17T08:42:44.535Z,16.10
2022-08-17T08:45:25.443Z,11.60
2022-08-17T08:48:06.306Z,11.80
2022-08-17T08:51:13.485Z,10.70
2022-08-17T08:53:46.569Z,11.30
2022-08-17T08:57:19.506Z,10.40
2022-08-17T08:59:58.280Z,11.80
2022-08-17T09:03:03.384Z,11.50
2022-08-17T09:05:45.084Z,12.60
2022-08-17T09:08:35.976Z,11.90
2022-08-17T09:11:28.923Z,13.40
2022-08-17T09:14:28.294Z,13.20
2022-08-17T09:17:42.114Z,11.40
2022-08-17T09:23:37.869Z,12.70
2022-08-17T09:26:23.795Z,12.50
2022-08-17T09:29:01.881Z,12.70
2022-08-17T09:31:49.032Z,12.90
2022-08-17T09:34:34.518Z,12.70
2022-08-17T09:37:26.498Z,12.10
2022-08-17T09:40:42.014Z,12.50
2022-08-17T09:43:48.521Z,11.50
2022-08-17T09:46:27.931Z,15.60
2022-08-17T09:49:11.147Z,16.20
2022-08-17T09:51:56.426Z,12.90
2022-08-17T09:54:41.519Z,11.30
2022-08-17T09:57:32.675Z,11.50
2022-08-17T10:00:20.498Z,11.70
2022-08-17T10:03:03.427Z,9.10
2022-08-17T10:05:47.033Z,12.70
2022-08-17T10:08:54.822Z,11.30
2022-08-17T10:12:10.617Z,12.90
2022-08-17T10:14:53.486Z,14.00
2022-08-17T10:17:40.984Z,12.80
2022-08-17T10:20:39.151Z,11.20
2022-08-17T10:23:43.065Z,11.00
2022-08-17T10:26:25.611Z,10.10
2022-08-17T10:29:13.006Z,14.00
2022-08-17T10:31:56.033Z,12.10
2022-08-17T10:34:49.440Z,14.40
2022-08-17T10:37:59.632Z,11.00
2022-08-17T10:41:00.290Z,10.80
2022-08-17T10:44:38.282Z,11.00
2022-08-17T10:47:20.605Z,12.70
2022-08-17T10:49:56.756Z,12.10
2022-08-17T10:52:50.930Z,13.80
2022-08-17T10:55:26.482Z,15.50
2022-08-17T10:58:22.293Z,10.80
2022-08-17T11:00:58.929Z,13.90
2022-08-17T11:03:33.238Z,13.40
2022-08-17T11:06:25.543Z,13.00
2022-08-17T11:09:10.450Z,11.80
2022-08-17T11:12:12.506Z,12.70
2022-08-17T11:15:26.365Z,12.10
2022-08-17T11:18:16.000Z,11.70
2022-08-17T11:21:08.089Z,10.20
2022-08-17T11:24:12.149Z,10.70
2022-08-17T11:27:05.530Z,11.60
2022-08-17T11:30:08.211Z,12.80
2022-08-17T11:32:54.532Z,12.70
2022-08-17T11:35:41.021Z,13.70
2022-08-17T11:38:29.763Z,10.90
2022-08-17T11:41:14.224Z,13.40
2022-08-17T11:44:02.188Z,13.10
2022-08-17T11:47:29.676Z,13.10
2022-08-17T11:50:44.169Z,11.90
2022-08-17T11:53:49.092Z,13.40
2022-08-17T11:56:49.823Z,12.80
2022-08-17T11:59:34.860Z,14.80
2022-08-17T12:02:35.781Z,11.30
2022-08-17T12:05:26.139Z,10.30
2022-08-17T12:08:15.566Z,12.90
2022-08-17T12:11:08.731Z,12.10
2022-08-17T12:14:01.881Z,13.10
2022-08-17T12:16:36.318Z,15.90
2022-08-17T12:19:19.868Z,13.30
2022-08-17T12:22:45.334Z,14.90
2022-08-17T12:25:24.567Z,13.60
2022-08-17T12:28:06.184Z,15.20
2022-08-17T12:30:41.107Z,12.10
2022-08-17T12:33:25.405Z,17.80
2022-08-17T12:36:07.189Z,14.50
2022-08-17T12:38:42.394Z,11.60
2022-08-17T12:41:30.048Z,18.80
2022-08-17T12:44:06.235Z,17.60
2022-08-17T12:46:50.601Z,16.20
2022-08-17T12:49:31.104Z,14.30
2022-08-17T12:52:16.276Z,14.70
2022-08-17T12:55:07.046Z,12.70
2022-08-17T12:57:43.024Z,11.50
2022-08-17T13:00:22.676Z,11.40
2022-08-17T13:03:01.903Z,10.40
2022-08-17T13:05:56.842Z,10.70
2022-08-17T13:08:36.427Z,15.10
2022-08-17T13:11:22.816Z,14.00
2022-08-17T13:13:57.783Z,12.50
2022-08-17T13:16:34.365Z,12.80
2022-08-17T13:19:29.775Z,15.40
2022-08-17T13:22:15.719Z,13.10
2022-08-17T13:25:01.334Z,13.50
2022-08-17T13:27:35.116Z,13.40
2022-08-17T13:30:15.150Z,13.50
2022-08-17T13:32:49.180Z,13.20
2022-08-17T13:35:41.158Z,13.70
2022-08-17T13:40:53.815Z,14.60
2022-08-17T13:43:49.201Z,13.50
2022-08-17T13:46:24.810Z,14.10
2022-08-17T13:49:11.002Z,13.10
2022-08-17T13:51:49.625Z,15.10
2022-08-17T13:54:27.120Z,14.90
2022-08-17T13:57:29.087Z,15.80
2022-08-17T14:02:54.610Z,15.40
2022-08-17T14:05:27.779Z,17.40
2022-08-17T14:08:06.740Z,16.00
2022-08-17T14:10:41.144Z,16.60
2022-08-17T14:13:15.763Z,15.50
2022-08-17T14:15:55.245Z,16.30
2022-08-17T14:18:55.298Z,16.80
2022-08-17T14:21:24.679Z,16.40
2022-08-17T14:24:00.045Z,16.70
2022-08-17T14:26:33.730Z,17.10
2022-08-17T14:29:14.896Z,14.90
2022-08-17T14:31:54.300Z,16.10
2022-08-17T14:34:29.208Z,17.20
2022-08-17T14:37:02.450Z,18.20
2022-08-17T14:39:35.635Z,16.60
2022-08-17T14:42:09.845Z,18.90
2022-08-17T14:44:43.151Z,19.60
2022-08-17T14:47:16.288Z,18.00
2022-08-17T14:49:50.310Z,17.60
2022-08-17T14:52:23.875Z,16.20
2022-08-17T14:54:57.794Z,15.50
2022-08-17T14:57:33.570Z,13.30
2022-08-17T15:00:08.845Z,13.10
2022-08-17T15:02:55.322Z,13.10
2022-08-17T15:05:33.885Z,13.60
2022-08-17T15:08:08.212Z,12.80
2022-08-17T15:10:41.704Z,15.10
2022-08-17T15:13:23.852Z,13.80
2022-08-17T15:15:57.006Z,14.80
2022-08-17T15:18:30.097Z,13.50
2022-08-17T15:21:05.641Z,13.10
2022-08-17T15:23:40.167Z,17.10
2022-08-17T15:26:15.567Z,14.60
2022-08-17T15:28:54.403Z,14.60
2022-08-17T15:31:31.883Z,13.90
2022-08-17T15:34:08.022Z,13.80
2022-08-17T15:36:49.180Z,12.50
2022-08-17T15:39:23.292Z,13.90
2022-08-17T15:41:58.118Z,13.80
2022-08-17T15:44:32.744Z,16.10
2022-08-17T15:47:08.258Z,14.50
2022-08-17T15:49:45.762Z,16.60
2022-08-17T15:52:20.533Z,14.40
2022-08-17T15:54:58.941Z,16.10
2022-08-17T15:57:31.585Z,13.80
2022-08-17T16:00:06.235Z,16.40
2022-08-17T16:03:31.993Z,16.30
2022-08-17T16:05:40.964Z,16.30
2022-08-17T16:08:20.008Z,14.70
2022-08-17T16:10:55.717Z,15.50
2022-08-17T16:13:29.026Z,15.80
2022-08-17T16:16:01.833Z,18.20
2022-08-17T16:18:34.448Z,22.40
2022-08-17T16:21:42.470Z,18.40
2022-08-17T16:24:15.938Z,18.30
2022-08-17T16:26:48.815Z,18.40
2022-08-17T16:29:21.815Z,15.30
2022-08-17T16:31:54.586Z,19.60
2022-08-17T16:34:27.539Z,20.70
2022-08-17T16:37:00.293Z,15.30
2022-08-17T16:39:34.612Z,17.10
2022-08-17T16:42:09.467Z,18.70
2022-08-17T16:44:42.306Z,19.40
2022-08-17T16:47:18.265Z,19.00
2022-08-17T16:49:51.785Z,25.90
2022-08-17T16:52:32.480Z,20.30
2022-08-17T16:55:09.082Z,22.00
2022-08-17T16:57:47.643Z,19.20
2022-08-17T17:00:24.990Z,20.10
2022-08-17T17:02:58.052Z,24.40
2022-08-17T17:05:33.241Z,19.90
2022-08-17T17:08:26.149Z,16.80
2022-08-17T17:11:08.935Z,19.80
2022-08-17T17:13:54.676Z,18.40
2022-08-17T17:16:41.310Z,17.40
2022-08-17T17:19:42.941Z,17.60
2022-08-17T17:22:56.108Z,17.60
2022-08-17T17:25:40.035Z,18.80
2022-08-17T17:28:32.162Z,17.90
2022-08-17T17:31:21.550Z,22.30
2022-08-17T17:34:04.378Z,20.30
2022-08-17T17:36:48.839Z,19.70
2022-08-17T17:39:49.402Z,18.80
2022-08-17T17:42:31.996Z,17.20
2022-08-17T17:45:07.244Z,22.10
2022-08-17T17:47:41.022Z,25.20
2022-08-17T17:50:14.585Z,21.50
2022-08-17T17:52:53.415Z,22.60
2022-08-17T17:55:44.824Z,26.60
2022-08-17T17:58:38.090Z,19.50
2022-08-17T18:01:42.466Z,19.70
2022-08-17T18:04:32.993Z,16.80
2022-08-17T18:07:23.309Z,19.50
2022-08-17T18:10:34.916Z,18.40
2022-08-17T18:13:40.874Z,14.90
2022-08-17T18:16:17.456Z,14.50
2022-08-17T18:18:52.600Z,13.80
2022-08-17T18:21:31.786Z,15.30
2022-08-17T18:24:06.852Z,15.30
2022-08-17T18:26:57.435Z,14.40
2022-08-17T18:29:38.403Z,14.10
2022-08-17T18:32:31.778Z,14.30
2022-08-17T18:35:12.027Z,12.20
2022-08-17T18:37:49.027Z,13.10
2022-08-17T18:40:21.548Z,10.90
2022-08-17T18:42:59.460Z,14.10
2022-08-17T18:45:36.274Z,11.20
2022-08-17T18:48:21.773Z,14.70
2022-08-17T18:50:56.389Z,11.80
2022-08-17T18:53:42.152Z,12.70
2022-08-17T18:56:36.449Z,12.20
2022-08-17T18:59:20.902Z,11.90
2022-08-17T19:02:27.351Z,13.00
2022-08-17T19:05:35.784Z,12.90
2022-08-17T19:08:21.936Z,15.20
2022-08-17T19:11:21.496Z,10.70
2022-08-17T19:14:03.014Z,12.20
2022-08-17T19:16:41.559Z,13.40
2022-08-17T19:19:28.292Z,11.20
2022-08-17T19:22:28.894Z,12.80
2022-08-17T19:25:19.169Z,12.10
2022-08-17T19:28:00.033Z,14.70
2022-08-17T19:30:33.341Z,13.40
2022-08-17T19:33:06.640Z,14.60
2022-08-17T19:35:51.990Z,16.70
2022-08-17T19:38:49.959Z,14.50
2022-08-17T19:41:28.738Z,13.90
2022-08-17T19:44:07.514Z,15.70
2022-08-17T19:47:00.893Z,13.50
2022-08-17T19:50:10.175Z,15.40
2022-08-17T19:53:07.898Z,18.90
2022-08-17T19:55:58.435Z,14.10
2022-08-17T19:58:57.570Z,15.80
2022-08-17T20:01:49.850Z,15.90
2022-08-17T20:04:32.920Z,14.30
2022-08-17T20:07:21.951Z,12.60
2022-08-17T20:10:04.452Z,14.60
2022-08-17T20:12:40.390Z,15.90
2022-08-17T20:15:30.574Z,12.70
2022-08-17T20:18:07.739Z,15.50
2022-08-17T20:21:03.091Z,13.90
2022-08-17T20:24:00.177Z,13.50
2022-08-17T20:26:42.921Z,15.40
2022-08-17T20:29:53.331Z,16.60
2022-08-17T20:32:32.093Z,15.30
2022-08-17T20:35:09.037Z,15.50
2022-08-17T20:37:44.791Z,13.50
2022-08-17T20:40:23.658Z,14.60
2022-08-17T20:42:57.547Z,13.70
2022-08-17T20:46:04.293Z,13.40
2022-08-17T20:48:47.561Z,14.80
2022-08-17T20:51:43.490Z,14.70
2022-08-17T20:54:54.340Z,14.40
2022-08-17T20:57:50.153Z,13.60
2022-08-17T21:00:31.958Z,15.10
2022-08-17T21:06:17.072Z,13.60
2022-08-17T21:08:59.469Z,12.70
2022-08-17T21:12:02.835Z,13.00
2022-08-17T21:14:58.688Z,17.00
2022-08-17T21:17:36.278Z,15.60
2022-08-17T21:20:39.223Z,12.70
2022-08-17T21:23:32.889Z,13.70
2022-08-17T21:26:18.015Z,13.60
2022-08-17T21:29:31.858Z,13.60
2022-08-17T21:34:35.434Z,12.20
2022-08-17T21:37:25.621Z,13.80
2022-08-17T21:40:39.797Z,14.80
2022-08-17T21:43:33.063Z,15.70
2022-08-17T21:46:28.976Z,12.30
2022-08-17T21:49:13.334Z,14.20
2022-08-17T21:51:55.167Z,13.90
2022-08-17T21:54:40.953Z,15.20
2022-08-17T21:57:28.017Z,14.30
2022-08-17T22:00:03.654Z,14.40
2022-08-17T22:02:40.017Z,14.60
2022-08-17T22:05:17.168Z,13.70
2022-08-17T22:07:52.228Z,14.80
2022-08-17T22:10:34.004Z,14.80
2022-08-17T22:13:29.845Z,16.00
2022-08-17T22:16:28.922Z,15.90
2022-08-17T22:19:07.030Z,16.70
2022-08-17T22:21:40.210Z,15.20
2022-08-17T22:24:25.589Z,13.80
2022-08-17T22:27:13.467Z,14.80
2022-08-17T22:30:01.068Z,17.90
2022-08-17T22:32:38.269Z,13.80
2022-08-17T22:35:37.857Z,18.50
2022-08-17T22:38:22.080Z,13.40
2022-08-17T22:41:15.870Z,17.20
2022-08-17T22:43:48.874Z,14.40
2022-08-17T22:46:27.464Z,13.60
2022-08-17T22:49:02.085Z,15.20
2022-08-17T22:51:35.497Z,15.20
2022-08-17T22:54:50.533Z,14.90
2022-08-17T22:57:44.048Z,13.10
2022-08-17T23:00:43.813Z,17.60
2022-08-17T23:03:24.359Z,15.30
2022-08-17T23:06:10.197Z,15.30
2022-08-17T23:08:55.812Z,14.90
2022-08-17T23:11:36.911Z,18.10
2022-08-17T23:14:24.912Z,16.70
2022-08-17T23:16:57.597Z,15.80
2022-08-17T23:19:33.057Z,16.20
2022-08-17T23:22:08.102Z,17.30
2022-08-17T23:24:51.379Z,15.50
2022-08-17T23:27:25.034Z,16.30
2022-08-17T23:29:58.821Z,17.20
2022-08-17T23:32:32.167Z,13.80
2022-08-17T23:35:05.831Z,14.10
2022-08-17T23:37:41.065Z,17.00
2022-08-17T23:40:14.546Z,16.00
2022-08-17T23:42:47.867Z,16.80
2022-08-17T23:45:22.414Z,15.80
2022-08-17T23:47:55.859Z,16.30
2022-08-17T23:50:31.009Z,17.20
2022-08-17T23:53:08.226Z,17.50
2022-08-17T23:55:41.441Z,16.40
2022-08-17T23:58:14.521Z,16.20
